createdAt,value
2019-06-15T00:01:46.837Z,53.70
2019-06-15T00:04:17.500Z,53.30
2019-06-15T00:06:48.280Z,53.90
2019-06-15T00:09:19.625Z,53.30
2019-06-15T00:11:50.188Z,53.70
2019-06-15T00:14:20.881Z,53.00
2019-06-15T00:16:51.405Z,53.60
2019-06-15T00:19:21.945Z,53.40
2019-06-15T00:21:52.707Z,53.90
2019-06-15T00:24:34.987Z,53.60
2019-06-15T00:26:55.725Z,54.00
2019-06-15T00:29:26.356Z,54.10
2019-06-15T00:31:57.846Z,54.20
2019-06-15T00:34:29.189Z,53.50
2019-06-15T00:36:59.764Z,54.00
2019-06-15T00:39:30.288Z,53.90
2019-06-15T00:42:01.458Z,53.80
2019-06-15T00:44:32.282Z,51.30
2019-06-15T00:47:03.345Z,54.20
2019-06-15T00:49:34.796Z,53.40
2019-06-15T00:52:05.536Z,53.50
2019-06-15T00:54:49.728Z,53.20
2019-06-15T00:57:09.006Z,53.00
2019-06-15T00:59:39.647Z,53.70
2019-06-15T01:02:10.509Z,53.50
2019-06-15T01:04:41.031Z,53.30
2019-06-15T01:07:11.638Z,53.20
2019-06-15T01:09:42.361Z,52.80
2019-06-15T01:12:13.893Z,53.50
2019-06-15T01:14:44.484Z,53.90
2019-06-15T01:17:20.041Z,53.90
2019-06-15T01:19:50.550Z,53.70
2019-06-15T01:22:21.175Z,54.50
2019-06-15T01:25:04.891Z,54.20
2019-06-15T01:27:24.635Z,54.80
2019-06-15T01:29:55.448Z,54.80
2019-06-15T01:32:26.708Z,54.70
2019-06-15T01:34:57.329Z,54.50
2019-06-15T01:37:28.011Z,55.10
2019-06-15T01:39:58.582Z,55.10
2019-06-15T01:42:29.849Z,54.20
2019-06-15T01:45:01.262Z,54.20
2019-06-15T01:47:31.826Z,53.90
2019-06-15T01:50:02.986Z,54.70
2019-06-15T01:52:34.882Z,53.30
2019-06-15T01:55:17.436Z,51.20
2019-06-15T01:57:38.143Z,54.60
2019-06-15T02:00:11.747Z,54.50
2019-06-15T02:02:42.365Z,53.80
2019-06-15T02:05:13.017Z,53.10
2019-06-15T02:07:43.646Z,53.50
2019-06-15T02:10:17.201Z,53.40
2019-06-15T02:12:47.787Z,52.80
2019-06-15T02:15:18.472Z,52.60
2019-06-15T02:17:49.761Z,53.00
2019-06-15T02:20:20.793Z,52.30
2019-06-15T02:22:53.493Z,52.20
2019-06-15T02:25:35.489Z,51.60
2019-06-15T02:27:57.619Z,51.10
2019-06-15T02:30:30.834Z,50.90
2019-06-15T02:33:01.864Z,50.90
2019-06-15T02:35:32.946Z,50.50
2019-06-15T02:38:04.655Z,50.40
2019-06-15T02:40:35.364Z,51.10
2019-06-15T02:43:06.447Z,50.80
2019-06-15T02:45:37.005Z,51.00
2019-06-15T02:48:07.922Z,51.30
2019-06-15T02:50:38.948Z,51.30
2019-06-15T02:53:14.331Z,51.10
2019-06-15T02:55:50.510Z,51.90
2019-06-15T02:58:20.133Z,51.40
2019-06-15T03:01:04.540Z,51.40
2019-06-15T03:03:36.383Z,51.00
2019-06-15T03:06:07.323Z,51.30
2019-06-15T03:08:38.248Z,50.60
2019-06-15T03:11:09.177Z,50.40
2019-06-15T03:13:39.723Z,49.60
2019-06-15T03:16:10.254Z,50.00
2019-06-15T03:18:40.974Z,49.90
2019-06-15T03:21:11.629Z,49.60
2019-06-15T03:23:42.248Z,49.30
2019-06-15T03:26:14.187Z,48.90
2019-06-15T03:28:45.091Z,51.30
2019-06-15T03:31:16.663Z,50.40
2019-06-15T03:33:47.172Z,49.50
2019-06-15T03:36:18.110Z,48.20
2019-06-15T03:38:49.094Z,50.00
2019-06-15T03:41:22.152Z,50.00
2019-06-15T03:43:53.539Z,47.30
2019-06-15T03:46:24.123Z,49.90
2019-06-15T03:48:55.526Z,49.80
2019-06-15T03:51:26.681Z,50.00
2019-06-15T03:53:57.369Z,49.50
2019-06-15T03:56:29.705Z,49.90
2019-06-15T03:59:00.367Z,51.80
2019-06-15T04:01:37.091Z,50.10
2019-06-15T04:04:07.988Z,49.80
2019-06-15T04:06:38.919Z,50.30
2019-06-15T04:09:09.662Z,49.80
2019-06-15T04:11:40.231Z,49.90
2019-06-15T04:14:11.629Z,49.70
2019-06-15T04:16:42.318Z,49.30
2019-06-15T04:19:13.115Z,49.90
2019-06-15T04:21:43.705Z,49.90
2019-06-15T04:24:14.756Z,49.60
2019-06-15T04:26:45.424Z,49.90
2019-06-15T04:29:16.371Z,49.90
2019-06-15T04:31:46.967Z,50.00
2019-06-15T04:34:18.352Z,49.20
2019-06-15T04:36:48.988Z,49.70
2019-06-15T04:39:19.786Z,49.90
2019-06-15T04:41:50.412Z,49.30
2019-06-15T04:44:26.271Z,50.00
2019-06-15T04:47:02.442Z,49.80
2019-06-15T04:49:30.090Z,48.70
2019-06-15T04:52:01.580Z,49.50
2019-06-15T04:54:32.681Z,49.00
2019-06-15T04:57:05.779Z,49.40
2019-06-15T04:59:37.291Z,49.40
2019-06-15T05:02:07.880Z,49.60
2019-06-15T05:04:38.511Z,47.70
2019-06-15T05:07:09.101Z,49.30
2019-06-15T05:09:40.022Z,49.50
2019-06-15T05:12:10.710Z,49.30
2019-06-15T05:14:42.380Z,48.40
2019-06-15T05:17:12.904Z,48.50
2019-06-15T05:19:43.978Z,49.00
2019-06-15T05:22:14.859Z,48.50
2019-06-15T05:24:45.680Z,47.60
2019-06-15T05:27:16.342Z,47.90
2019-06-15T05:29:47.010Z,48.20
2019-06-15T05:32:19.947Z,47.80
2019-06-15T05:34:54.238Z,45.10
2019-06-15T05:37:24.737Z,47.20
2019-06-15T05:39:55.491Z,47.50
2019-06-15T05:42:26.728Z,47.90
2019-06-15T05:44:58.025Z,47.20
2019-06-15T05:47:28.715Z,47.10
2019-06-15T05:49:59.450Z,47.50
2019-06-15T05:52:30.344Z,46.60
2019-06-15T05:55:01.557Z,46.30
2019-06-15T05:57:32.109Z,47.40
2019-06-15T06:00:03.062Z,47.20
2019-06-15T06:02:34.360Z,47.00
2019-06-15T06:05:06.707Z,46.80
2019-06-15T06:07:37.288Z,46.40
2019-06-15T06:10:10.777Z,45.70
2019-06-15T06:12:40.708Z,45.90
2019-06-15T06:15:11.904Z,45.20
2019-06-15T06:17:42.545Z,46.00
2019-06-15T06:20:14.684Z,46.20
2019-06-15T06:22:45.387Z,47.00
2019-06-15T06:25:16.648Z,46.50
2019-06-15T06:27:47.191Z,47.20
2019-06-15T06:30:17.984Z,47.20
2019-06-15T06:32:48.653Z,46.80
2019-06-15T06:35:20.662Z,46.30
2019-06-15T06:37:51.318Z,45.90
2019-06-15T06:40:21.789Z,44.40
2019-06-15T06:42:52.294Z,46.80
2019-06-15T06:45:23.478Z,46.30
2019-06-15T06:47:55.329Z,46.70
2019-06-15T06:50:26.481Z,47.00
2019-06-15T06:52:56.983Z,47.20
2019-06-15T06:55:27.657Z,46.40
2019-06-15T06:57:58.232Z,47.10
2019-06-15T07:00:28.779Z,46.60
2019-06-15T07:02:59.713Z,46.90
2019-06-15T07:05:30.397Z,47.00
2019-06-15T07:08:01.576Z,47.00
2019-06-15T07:10:32.317Z,46.20
2019-06-15T07:13:05.317Z,47.40
2019-06-15T07:15:36.285Z,47.60
2019-06-15T07:18:07.177Z,46.80
2019-06-15T07:20:37.701Z,48.20
2019-06-15T07:23:08.260Z,46.30
2019-06-15T07:25:39.410Z,45.40
2019-06-15T07:28:12.776Z,44.50
2019-06-15T07:30:44.365Z,44.30
2019-06-15T07:33:15.472Z,44.30
2019-06-15T07:35:46.148Z,43.60
2019-06-15T07:38:17.117Z,44.50
2019-06-15T07:40:48.192Z,43.90
2019-06-15T07:43:19.742Z,44.40
2019-06-15T07:45:51.298Z,43.70
2019-06-15T07:48:23.086Z,43.80
2019-06-15T07:50:53.999Z,44.50
2019-06-15T07:53:24.946Z,43.50
2019-06-15T07:55:55.648Z,44.30
2019-06-15T07:58:26.206Z,44.50
2019-06-15T08:00:56.970Z,45.00
2019-06-15T08:03:28.552Z,44.20
2019-06-15T08:05:59.616Z,44.60
2019-06-15T08:08:30.785Z,45.10
2019-06-15T08:11:01.710Z,45.10
2019-06-15T08:13:32.292Z,44.60
2019-06-15T08:16:03.499Z,45.60
2019-06-15T08:18:34.678Z,44.50
2019-06-15T08:21:06.296Z,45.10
2019-06-15T08:23:38.077Z,46.10
2019-06-15T08:26:09.160Z,45.10
2019-06-15T08:28:40.706Z,44.90
2019-06-15T08:31:11.545Z,45.20
2019-06-15T08:33:42.643Z,44.00
2019-06-15T08:36:13.290Z,44.60
2019-06-15T08:38:43.944Z,44.90
2019-06-15T08:41:15.365Z,45.20
2019-06-15T08:43:46.145Z,44.70
2019-06-15T08:46:17.501Z,45.30
2019-06-15T08:48:48.203Z,45.10
2019-06-15T08:51:19.244Z,44.90
2019-06-15T08:53:49.898Z,42.50
2019-06-15T08:56:20.459Z,44.00
2019-06-15T08:58:55.622Z,44.00
2019-06-15T09:01:24.630Z,43.90
2019-06-15T09:03:55.277Z,43.80
2019-06-15T09:06:25.894Z,44.50
2019-06-15T09:08:56.647Z,44.00
2019-06-15T09:11:27.948Z,43.80
2019-06-15T09:13:58.647Z,43.40
2019-06-15T09:16:29.722Z,44.20
2019-06-15T09:19:00.320Z,42.10
2019-06-15T09:21:32.636Z,44.10
2019-06-15T09:24:03.556Z,42.80
2019-06-15T09:26:34.941Z,43.10
2019-06-15T09:29:11.352Z,42.10
2019-06-15T09:31:38.187Z,42.30
2019-06-15T09:34:18.481Z,39.10
2019-06-15T09:36:42.734Z,40.10
2019-06-15T09:39:14.685Z,39.90
2019-06-15T09:41:45.671Z,39.20
2019-06-15T09:44:16.654Z,37.60
2019-06-15T09:46:47.764Z,37.70
2019-06-15T09:49:18.308Z,37.40
2019-06-15T09:51:48.924Z,36.90
2019-06-15T09:54:19.706Z,33.90
2019-06-15T09:56:50.320Z,36.10
2019-06-15T09:59:26.059Z,36.10
2019-06-15T10:01:53.401Z,34.20
2019-06-15T10:04:24.031Z,33.00
2019-06-15T10:06:55.644Z,34.10
2019-06-15T10:09:26.407Z,33.90
2019-06-15T10:11:56.979Z,34.40
2019-06-15T10:14:28.012Z,33.70
2019-06-15T10:16:59.818Z,33.70
2019-06-15T10:19:30.550Z,33.20
2019-06-15T10:22:01.671Z,34.90
2019-06-15T10:24:32.728Z,31.00
2019-06-15T10:27:03.572Z,32.80
2019-06-15T10:29:41.844Z,33.00
2019-06-15T10:32:07.493Z,32.00
2019-06-15T10:34:38.233Z,32.80
2019-06-15T10:37:08.954Z,33.50
2019-06-15T10:39:40.220Z,31.30
2019-06-15T10:42:10.822Z,32.90
2019-06-15T10:44:41.460Z,31.30
2019-06-15T10:47:12.509Z,31.90
2019-06-15T10:49:43.145Z,32.20
2019-06-15T10:52:13.769Z,31.40
2019-06-15T10:54:45.661Z,33.90
2019-06-15T10:57:16.240Z,31.80
2019-06-15T10:59:56.834Z,31.70
2019-06-15T11:02:19.144Z,33.20
2019-06-15T11:04:49.766Z,32.00
2019-06-15T11:07:20.379Z,32.20
2019-06-15T11:09:50.973Z,31.30
2019-06-15T11:12:21.695Z,30.10
2019-06-15T11:14:52.835Z,29.40
2019-06-15T11:17:23.515Z,29.70
2019-06-15T11:19:55.328Z,30.30
2019-06-15T11:22:26.373Z,30.70
2019-06-15T11:24:57.071Z,29.40
2019-06-15T11:27:27.735Z,32.00
2019-06-15T11:30:12.574Z,32.30
2019-06-15T11:32:31.199Z,33.20
2019-06-15T11:35:04.241Z,32.90
2019-06-15T11:37:35.509Z,34.30
2019-06-15T11:40:06.332Z,31.40
2019-06-15T11:42:37.649Z,30.10
2019-06-15T11:45:08.635Z,29.40
2019-06-15T11:47:39.540Z,29.90
2019-06-15T11:50:12.019Z,30.00
2019-06-15T11:52:43.399Z,29.60
2019-06-15T11:55:14.175Z,27.90
2019-06-15T11:57:44.824Z,27.60
2019-06-15T12:00:30.440Z,27.00
2019-06-15T12:02:48.176Z,27.50
2019-06-15T12:05:18.997Z,26.70
2019-06-15T12:07:49.604Z,27.00
2019-06-15T12:10:20.705Z,25.90
2019-06-15T12:12:51.387Z,25.30
2019-06-15T12:15:22.296Z,25.00
2019-06-15T12:17:52.864Z,25.20
2019-06-15T12:20:23.816Z,26.40
2019-06-15T12:22:56.695Z,27.30
2019-06-15T12:25:27.552Z,28.40
2019-06-15T12:27:58.490Z,28.50
2019-06-15T12:30:47.375Z,28.50
2019-06-15T12:33:14.648Z,27.40
2019-06-15T12:35:45.571Z,28.10
2019-06-15T12:38:16.570Z,27.20
2019-06-15T12:40:47.620Z,27.80
2019-06-15T12:43:19.212Z,27.30
2019-06-15T12:45:49.922Z,27.10
2019-06-15T12:48:20.882Z,27.60
2019-06-15T12:50:51.740Z,28.10
2019-06-15T12:53:22.524Z,27.80
2019-06-15T12:55:53.947Z,27.80
2019-06-15T12:58:24.726Z,27.80
2019-06-15T13:01:02.739Z,28.20
2019-06-15T13:03:27.707Z,28.70
2019-06-15T13:05:58.854Z,28.20
2019-06-15T13:08:29.629Z,27.70
2019-06-15T13:11:00.322Z,26.80
2019-06-15T13:13:30.934Z,26.40
2019-06-15T13:16:01.511Z,25.90
2019-06-15T13:18:32.930Z,26.40
2019-06-15T13:21:03.582Z,26.90
2019-06-15T13:23:34.132Z,27.20
2019-06-15T13:26:04.858Z,27.40
2019-06-15T13:28:36.530Z,27.80
2019-06-15T13:31:17.738Z,28.30
2019-06-15T13:33:40.610Z,28.60
2019-06-15T13:36:12.593Z,29.20
2019-06-15T13:38:43.371Z,28.60
2019-06-15T13:41:14.082Z,28.30
2019-06-15T13:43:44.715Z,27.70
2019-06-15T13:46:15.321Z,26.40
2019-06-15T13:48:46.253Z,26.30
2019-06-15T13:51:16.991Z,25.80
2019-06-15T13:53:47.593Z,25.60
2019-06-15T13:56:18.591Z,25.40
2019-06-15T13:58:49.243Z,25.90
2019-06-15T14:01:33.310Z,25.90
2019-06-15T14:03:52.215Z,26.50
2019-06-15T14:06:22.982Z,26.90
2019-06-15T14:08:54.307Z,27.40
2019-06-15T14:11:25.274Z,27.10
2019-06-15T14:13:56.831Z,27.90
2019-06-15T14:16:27.453Z,28.50
2019-06-15T14:18:58.158Z,28.60
2019-06-15T14:21:29.086Z,27.00
2019-06-15T14:23:59.760Z,27.10
2019-06-15T14:26:30.501Z,26.50
2019-06-15T14:29:02.916Z,25.80
2019-06-15T14:31:46.640Z,25.60
2019-06-15T14:34:06.699Z,25.50
2019-06-15T14:36:37.983Z,25.30
2019-06-15T14:39:08.981Z,25.30
2019-06-15T14:41:40.062Z,25.30
2019-06-15T14:44:10.676Z,25.20
2019-06-15T14:46:42.229Z,25.20
2019-06-15T14:49:13.774Z,24.90
2019-06-15T14:51:44.506Z,24.80
2019-06-15T14:54:16.178Z,25.20
2019-06-15T14:56:46.983Z,25.50
2019-06-15T14:59:17.720Z,27.10
2019-06-15T15:01:48.371Z,28.50
2019-06-15T15:04:20.948Z,29.20
2019-06-15T15:06:51.685Z,30.40
2019-06-15T15:09:22.445Z,30.20
2019-06-15T15:11:53.358Z,31.90
2019-06-15T15:14:26.023Z,32.70
2019-06-15T15:16:57.162Z,33.60
2019-06-15T15:19:28.401Z,34.70
2019-06-15T15:21:59.590Z,35.20
2019-06-15T15:24:30.592Z,35.20
2019-06-15T15:27:01.558Z,35.90
2019-06-15T15:29:32.290Z,36.50
2019-06-15T15:32:23.976Z,35.00
2019-06-15T15:34:45.284Z,36.80
2019-06-15T15:37:17.057Z,37.10
2019-06-15T15:39:47.570Z,37.30
2019-06-15T15:42:19.393Z,37.20
2019-06-15T15:44:49.993Z,35.40
2019-06-15T15:47:20.657Z,36.10
2019-06-15T15:49:53.141Z,38.70
2019-06-15T15:52:26.591Z,39.10
2019-06-15T15:54:56.757Z,38.80
2019-06-15T15:57:29.406Z,39.30
2019-06-15T15:59:59.862Z,39.50
2019-06-15T16:02:44.640Z,39.50
2019-06-15T16:05:06.229Z,38.80
2019-06-15T16:07:36.916Z,41.10
2019-06-15T16:10:12.295Z,39.60
2019-06-15T16:12:43.076Z,39.60
2019-06-15T16:15:15.865Z,39.10
2019-06-15T16:17:49.894Z,40.10
2019-06-15T16:20:22.931Z,40.30
2019-06-15T16:22:56.410Z,40.70
2019-06-15T16:25:28.195Z,40.70
2019-06-15T16:27:59.175Z,41.20
2019-06-15T16:30:59.454Z,41.30
2019-06-15T16:33:08.104Z,41.20
2019-06-15T16:35:39.005Z,40.70
2019-06-15T16:38:09.981Z,42.10
2019-06-15T16:40:41.183Z,42.30
2019-06-15T16:43:12.775Z,43.70
2019-06-15T16:45:46.647Z,45.30
2019-06-15T16:48:22.356Z,47.80
2019-06-15T16:50:54.277Z,50.50
2019-06-15T16:53:26.023Z,49.30
2019-06-15T16:55:56.980Z,48.90
2019-06-15T16:58:27.839Z,47.80
2019-06-15T17:00:58.450Z,49.20
2019-06-15T17:03:29.772Z,51.90
2019-06-15T17:06:03.363Z,52.20
2019-06-15T17:08:33.257Z,53.80
2019-06-15T17:11:06.563Z,55.70
2019-06-15T17:13:37.154Z,50.90
2019-06-15T17:16:10.461Z,50.30
2019-06-15T17:18:41.929Z,50.10
2019-06-15T17:21:17.449Z,49.60
2019-06-15T17:23:49.340Z,47.20
2019-06-15T17:26:19.982Z,47.80
2019-06-15T17:28:50.713Z,47.20
2019-06-15T17:31:21.307Z,46.40
2019-06-15T17:33:52.767Z,44.70
2019-06-15T17:36:23.429Z,44.90
2019-06-15T17:38:56.881Z,42.40
2019-06-15T17:41:26.788Z,43.30
2019-06-15T17:43:57.457Z,44.20
2019-06-15T17:46:29.891Z,44.40
2019-06-15T17:49:00.953Z,44.50
2019-06-15T17:51:32.751Z,44.60
2019-06-15T17:54:06.158Z,44.30
2019-06-15T17:56:36.834Z,44.80
2019-06-15T17:59:07.726Z,45.80
2019-06-15T18:01:38.800Z,44.90
2019-06-15T18:04:09.508Z,44.30
2019-06-15T18:06:46.873Z,44.90
2019-06-15T18:09:27.571Z,45.00
2019-06-15T18:12:00.445Z,44.40
2019-06-15T18:14:31.737Z,44.20
2019-06-15T18:17:02.256Z,45.00
2019-06-15T18:19:33.567Z,45.20
2019-06-15T18:22:07.241Z,46.20
2019-06-15T18:24:38.126Z,45.00
2019-06-15T18:27:09.664Z,45.70
2019-06-15T18:29:42.647Z,45.90
2019-06-15T18:32:13.317Z,46.10
2019-06-15T18:34:46.298Z,45.50
2019-06-15T18:37:17.289Z,45.90
2019-06-15T18:39:48.150Z,45.80
2019-06-15T18:42:19.186Z,45.60
2019-06-15T18:44:53.074Z,46.00
2019-06-15T18:47:26.683Z,47.40
2019-06-15T18:49:59.227Z,49.70
2019-06-15T18:52:30.928Z,50.30
2019-06-15T18:55:02.089Z,50.40
2019-06-15T18:57:32.913Z,51.00
2019-06-15T19:00:03.971Z,51.40
2019-06-15T19:02:39.302Z,52.00
2019-06-15T19:05:10.624Z,51.50
2019-06-15T19:07:42.686Z,52.00
2019-06-15T19:10:16.592Z,52.10
2019-06-15T19:12:49.087Z,51.50
2019-06-15T19:15:20.513Z,54.20
2019-06-15T19:17:51.490Z,51.30
2019-06-15T19:20:22.941Z,52.40
2019-06-15T19:22:56.086Z,52.20
2019-06-15T19:25:27.007Z,51.90
2019-06-15T19:27:57.712Z,49.40
2019-06-15T19:30:28.376Z,52.10
2019-06-15T19:33:01.709Z,52.00
2019-06-15T19:35:32.520Z,51.40
2019-06-15T19:38:06.045Z,51.90
2019-06-15T19:40:37.965Z,51.70
2019-06-15T19:43:08.848Z,51.50
2019-06-15T19:45:39.382Z,53.20
2019-06-15T19:48:09.974Z,52.60
2019-06-15T19:50:40.669Z,53.00
2019-06-15T19:53:11.263Z,52.50
2019-06-15T19:55:41.954Z,51.50
2019-06-15T19:58:12.587Z,52.60
2019-06-15T20:00:43.557Z,52.70
2019-06-15T20:03:17.716Z,52.80
2019-06-15T20:05:49.815Z,52.10
2019-06-15T20:08:21.768Z,52.60
2019-06-15T20:10:53.144Z,52.70
2019-06-15T20:13:24.736Z,52.80
2019-06-15T20:15:57.275Z,53.10
2019-06-15T20:21:11.571Z,51.70
2019-06-15T20:23:42.565Z,53.20
2019-06-15T20:26:13.250Z,53.70
2019-06-15T20:28:48.385Z,53.00
2019-06-15T20:31:19.259Z,52.90
2019-06-15T20:33:52.318Z,52.70
2019-06-15T20:36:23.288Z,53.40
2019-06-15T20:38:56.196Z,52.50
2019-06-15T20:41:28.843Z,53.00
2019-06-15T20:44:00.184Z,52.20
2019-06-15T20:46:36.920Z,52.00
2019-06-15T20:49:06.678Z,51.90
2019-06-15T20:51:40.760Z,52.40
2019-06-15T20:54:16.833Z,53.30
2019-06-15T20:56:49.699Z,54.00
2019-06-15T20:59:20.270Z,54.80
2019-06-15T21:01:51.422Z,54.10
2019-06-15T21:04:21.912Z,55.80
2019-06-15T21:06:52.518Z,55.80
2019-06-15T21:12:00.108Z,56.00
2019-06-15T21:14:36.085Z,56.40
2019-06-15T21:17:06.754Z,56.90
2019-06-15T21:19:42.099Z,57.10
2019-06-15T21:22:13.503Z,56.90
2019-06-15T21:24:46.327Z,57.70
2019-06-15T21:27:17.163Z,58.10
2019-06-15T21:29:48.741Z,58.50
2019-06-15T21:32:19.652Z,58.50
2019-06-15T21:34:50.325Z,58.80
2019-06-15T21:37:20.871Z,58.30
2019-06-15T21:39:51.434Z,58.90
2019-06-15T21:42:22.055Z,58.40
2019-06-15T21:44:52.563Z,58.40
2019-06-15T21:47:23.114Z,58.90
2019-06-15T21:49:55.668Z,59.10
2019-06-15T21:52:26.677Z,59.40
2019-06-15T21:54:57.207Z,58.80
2019-06-15T21:57:28.226Z,60.00
2019-06-15T21:59:58.855Z,58.70
2019-06-15T22:02:29.623Z,58.30
2019-06-15T22:05:00.327Z,59.60
2019-06-15T22:07:30.809Z,58.30
2019-06-15T22:10:02.065Z,58.40
2019-06-15T22:12:32.738Z,58.90
2019-06-15T22:15:03.300Z,59.00
2019-06-15T22:17:36.936Z,59.50
2019-06-15T22:20:07.448Z,61.40
2019-06-15T22:22:38.188Z,59.40
2019-06-15T22:25:08.816Z,59.30
2019-06-15T22:27:39.415Z,59.60
2019-06-15T22:30:11.328Z,59.50
2019-06-15T22:32:42.042Z,59.10
2019-06-15T22:35:16.370Z,59.30
2019-06-15T22:37:46.926Z,59.10
2019-06-15T22:40:17.405Z,58.90
2019-06-15T22:42:51.117Z,59.10
2019-06-15T22:45:21.985Z,59.40
2019-06-15T22:47:52.535Z,59.70
2019-06-15T22:50:27.681Z,59.50
2019-06-15T22:53:09.173Z,59.10
2019-06-15T22:55:46.486Z,59.20
2019-06-15T22:58:18.035Z,59.20
2019-06-15T23:00:50.063Z,59.20
2019-06-15T23:03:28.314Z,59.30
2019-06-15T23:06:00.837Z,58.30
2019-06-15T23:08:36.313Z,59.20
2019-06-15T23:11:08.443Z,60.00
2019-06-15T23:13:41.362Z,58.30
2019-06-15T23:16:12.342Z,59.80
2019-06-15T23:18:43.340Z,59.50
2019-06-15T23:21:14.176Z,59.00
2019-06-15T23:23:46.945Z,58.80
2019-06-15T23:26:17.060Z,59.10
2019-06-15T23:28:47.785Z,57.90
2019-06-15T23:31:18.362Z,58.40
2019-06-15T23:33:49.285Z,58.50
2019-06-15T23:36:26.941Z,58.70
2019-06-15T23:38:57.418Z,59.20
2019-06-15T23:41:28.706Z,59.20
2019-06-15T23:43:59.888Z,62.40
2019-06-15T23:46:30.573Z,59.50
2019-06-15T23:49:01.971Z,59.70
2019-06-15T23:51:33.969Z,59.80
2019-06-15T23:54:04.613Z,59.90
2019-06-15T23:56:36.867Z,60.30
2019-06-15T23:59:07.519Z,60.80
